Wilmington, OH

2:19 PM EST on March 05, 2015 (GMT -0500)
Little House On The Prairie | Change Station
CLOSE
Current Station
Personal Weather Station
Location: Wilmington, OH
Elevation: 1043 ft
Nearby Weather Stations

Elev 1043 ft 39.45 °N, 83.82 °W | Updated 20 seconds ago

Overcast
Overcast
28.6 °F
Feels Like 22 °F
N
5.8
Wind Variable Wind from ESE
Gusts 5.8 mph

Today
High -- | Low -- °F
--% Chance of Precip.
Yesterday
High -- | Low -- °F
Precip. -- in
7:02 AM 6:31 PM
Full, 100% visible
Pressure 30.45 in
Visibility 10.0 miles
Clouds Overcast 10000 ft
Windchill 22 °F
Dew Point 7 °F
Humidity 40%
Rainfall in
Snow Depth Not available.
UV 2 out of 12
Pollen .60 out of 12
Air Quality Not available.
Flu Activity Not available.
METAR KILN 051854Z AUTO 32009KT 10SM OVC100 M07/M16 A3033 RMK AO2 SLP310 T10721161

More Conditions Fewer Conditions

Pressure 30.45 in
Visibility 10.0 miles
Clouds Overcast 10000 ft
Windchill 22 °F
Dew Point 7 °F
Humidity 40%
Rainfall in
Snow Depth Not available.
UV 2 out of 12
Pollen .60 out of 12
Air Quality Not available.
Flu Activity Not available.
METAR KILN 051854Z AUTO 32009KT 10SM OVC100 M07/M16 A3033 RMK AO2 SLP310 T10721161

More Conditions Fewer Conditions

10-Day Weather Forecast

Almanac

Astronomy

Mar. 05, 2015 Rise Set
Actual Time
Civil Twilight
Nautical Twilight
Astronomical Twilight
Moon
Length of Visible Light
Length of Day
Tomorrow will be .
, % of the Moon is Illuminated

Today's Extremes

State Highs State Lows

Community

WunderPhotos

Upload Photos

1,802,916 photos uploaded!

WunderBlogs® & News

Nearby

Air Quality

  Air Quality AQ Index Pollutant
Not available.

Snow Depth

Station Depth Elevation

Earthquake Activity

City Distance Mag. Time & Date
Minimum magnitude displayed is 2.5.

Coastal Water Temperatures

Place Temperature

Nearby Weather Stations